Time;durP1;ratioP1;P1;durP2;ratioP2;P2;SDS_P1;SDS_P2;PMS_P1;PMS_P2;Temp;Humidity;BMP_temperature;BMP_pressure;BME280_temperature;BME280_humidity;BME280_pressure;Samples;Min_cycle;Max_cycle;Signal;HPM_P1;HPM_P2
2023/04/03 00:00:31;;;;;;;4.22;1.75;;;;;;;1.67;92.49;102927.25;1045588;28;20298;-77
2023/04/03 00:01:03;;;;;;;1.20;1.10;;;;;;;1.68;92.61;102932.41;1045465;28;20299;-77
2023/04/03 00:01:36;;;;;;;2.28;1.35;;;;;;;1.69;92.41;102927.97;1044280;28;20302;-76
2023/04/03 00:02:08;;;;;;;3.00;1.80;;;;;;;1.67;92.59;102933.34;1042019;28;20331;-76
2023/04/03 00:02:40;;;;;;;2.42;1.65;;;;;;;1.68;92.71;102926.31;1043801;28;20307;-77
2023/04/03 00:03:12;;;;;;;3.80;2.20;;;;;;;1.64;93.16;102932.69;1043496;28;20307;-76
2023/04/03 00:03:45;;;;;;;5.15;1.40;;;;;;;1.60;93.32;102933.84;1046478;28;20291;-76
2023/04/03 00:04:16;;;;;;;4.82;2.13;;;;;;;1.58;93.01;102933.13;1045590;28;20299;-77
2023/04/03 00:04:48;;;;;;;4.07;1.77;;;;;;;1.61;93.25;102932.91;1044826;28;20321;-77
2023/04/03 00:05:20;;;;;;;3.60;1.35;;;;;;;1.61;93.63;102935.53;1040311;28;20363;-76
2023/04/03 00:05:51;;;;;;;3.97;1.58;;;;;;;1.52;93.45;102932.59;1040117;28;20307;-77
2023/04/03 00:06:24;;;;;;;4.03;1.45;;;;;;;1.53;93.94;102934.28;1043580;28;20681;-76
2023/04/03 00:06:56;;;;;;;7.93;2.40;;;;;;;1.54;93.77;102928.09;1043060;28;20303;-77
2023/04/03 00:07:27;;;;;;;2.08;1.27;;;;;;;1.54;93.84;102938.59;1047674;28;20298;-76
2023/04/03 00:08:01;;;;;;;3.25;1.63;;;;;;;1.57;94.04;102932.28;1044129;28;20361;-76
2023/04/03 00:08:33;;;;;;;6.03;1.90;;;;;;;1.56;94.07;102935.84;1044822;28;20291;-76
2023/04/03 00:09:05;;;;;;;2.70;1.77;;;;;;;1.54;94.33;102933.34;1044278;28;20307;-76
2023/04/03 00:09:39;;;;;;;5.47;1.73;;;;;;;1.58;93.95;102933.13;1041453;28;20332;-76
2023/04/03 00:10:10;;;;;;;4.45;1.25;;;;;;;1.54;94.21;102938.59;1042353;28;20307;-76
2023/04/03 00:10:42;;;;;;;1.75;1.45;;;;;;;1.49;94.21;102929.34;1045815;28;20305;-76
2023/04/03 00:11:15;;;;;;;3.33;2.00;;;;;;;1.51;94.02;102933.56;1044252;28;20785;-76
2023/04/03 00:11:46;;;;;;;3.95;1.60;;;;;;;1.53;94.32;102936.06;1044006;28;20303;-77
2023/04/03 00:12:18;;;;;;;3.70;1.70;;;;;;;1.51;94.37;102930.09;1043951;28;20291;-77
2023/04/03 00:12:49;;;;;;;1.83;1.58;;;;;;;1.55;94.00;102935.03;1044616;28;20303;-76
2023/04/03 00:13:21;;;;;;;2.88;1.33;;;;;;;1.54;94.35;102932.50;1043920;28;20303;-76
2023/04/03 00:13:53;;;;;;;3.15;1.38;;;;;;;1.54;94.02;102933.34;1043052;28;20714;-76
2023/04/03 00:14:25;;;;;;;7.28;2.13;;;;;;;1.54;94.33;102933.34;1044211;28;20303;-76
2023/04/03 00:14:56;;;;;;;3.15;1.60;;;;;;;1.54;94.34;102938.59;1047027;28;20314;-76
2023/04/03 00:15:28;;;;;;;3.05;2.15;;;;;;;1.54;94.30;102933.34;1048521;28;20780;-76
2023/04/03 00:16:00;;;;;;;2.83;1.70;;;;;;;1.50;94.41;102931.03;1042027;28;20800;-76
2023/04/03 00:16:31;;;;;;;3.47;0.95;;;;;;;1.50;94.29;102928.41;1047275;28;20298;-76
2023/04/03 00:17:03;;;;;;;1.80;1.70;;;;;;;1.47;94.57;102932.09;1048310;28;20302;-76
2023/04/03 00:17:35;;;;;;;1.77;1.40;;;;;;;1.47;94.53;102931.25;1045079;28;20295;-76
2023/04/03 00:18:07;;;;;;;2.10;1.38;;;;;;;1.47;94.39;102937.34;1039014;28;20394;-76
2023/04/03 00:18:39;;;;;;;3.15;1.77;;;;;;;1.48;94.59;102933.78;1038433;28;20319;-76
2023/04/03 00:19:14;;;;;;;3.08;2.45;;;;;;;1.44;94.76;102936.72;1038486;28;20304;-76
2023/04/03 00:19:46;;;;;;;5.25;1.88;;;;;;;1.39;94.60;102934.41;1033882;28;20712;-76
2023/04/03 00:20:17;;;;;;;4.40;1.33;;;;;;;1.40;94.85;102936.09;1036804;28;20536;-76
2023/04/03 00:20:49;;;;;;;2.30;1.40;;;;;;;1.41;94.89;102940.41;1035917;28;20304;-75
2023/04/03 00:21:21;;;;;;;3.90;1.80;;;;;;;1.45;95.11;102946.28;1040544;28;20311;-76
2023/04/03 00:21:53;;;;;;;3.58;1.92;;;;;;;1.42;95.40;102944.69;1041794;28;20374;-76
2023/04/03 00:22:26;;;;;;;4.53;1.90;;;;;;;1.40;95.21;102938.72;1048229;28;20294;-76
2023/04/03 00:22:58;;;;;;;3.30;2.00;;;;;;;1.40;95.26;102946.59;1044458;28;20485;-76
2023/04/03 00:23:30;;;;;;;4.10;1.55;;;;;;;1.42;95.24;102943.84;1048107;28;20294;-76
2023/04/03 00:24:01;;;;;;;3.70;2.00;;;;;;;1.38;95.41;102945.84;1039939;28;20358;-75
2023/04/03 00:24:33;;;;;;;6.68;1.70;;;;;;;1.39;95.84;102934.41;1034277;28;20296;-76
2023/04/03 00:25:05;;;;;;;1.75;1.42;;;;;;;1.41;95.57;102943.03;1031392;28;20822;-76
2023/04/03 00:25:37;;;;;;;2.55;1.25;;;;;;;1.40;95.73;102951.00;1036078;28;20357;-77
2023/04/03 00:26:09;;;;;;;1.58;1.48;;;;;;;1.43;95.85;102941.13;1044241;28;20685;-76
2023/04/03 00:26:42;;;;;;;3.15;1.55;;;;;;;1.46;95.50;102945.31;1034968;28;20735;-76
2023/04/03 00:27:13;;;;;;;5.25;2.08;;;;;;;1.47;95.75;102942.59;1034189;28;20692;-76
2023/04/03 00:27:45;;;;;;;4.72;1.63;;;;;;;1.45;95.63;102948.91;1033854;28;20296;-76
2023/04/03 00:28:17;;;;;;;5.07;4.00;;;;;;;1.41;95.80;102936.94;1034981;28;20783;-75
2023/04/03 00:28:48;;;;;;;2.13;1.65;;;;;;;1.46;96.07;102946.16;1043104;28;20292;-76
2023/04/03 00:29:20;;;;;;;3.08;1.50;;;;;;;1.45;96.04;102948.91;1041826;28;20315;-76
2023/04/03 00:29:51;;;;;;;1.38;1.23;;;;;;;1.42;96.04;102942.06;1039333;28;20300;-76
2023/04/03 00:30:23;;;;;;;5.75;2.08;;;;;;;1.44;96.12;102945.44;1038066;28;20312;-76
2023/04/03 00:30:55;;;;;;;2.65;1.75;;;;;;;1.42;95.91;102943.84;1035612;28;20308;-77
2023/04/03 00:31:27;;;;;;;3.00;1.83;;;;;;;1.44;96.34;102947.22;1038947;28;20308;-76
2023/04/03 00:31:58;;;;;;;2.97;1.65;;;;;;;1.44;96.14;102950.69;1036109;28;20293;-76
2023/04/03 00:32:30;;;;;;;4.15;1.85;;;;;;;1.46;96.07;102943.53;1034917;28;20698;-76
2023/04/03 00:33:02;;;;;;;2.53;1.38;;;;;;;1.44;96.44;102948.06;1040205;28;20303;-76
2023/04/03 00:33:33;;;;;;;5.10;2.30;;;;;;;1.42;96.62;102946.47;1043591;28;20310;-76
2023/04/03 00:34:05;;;;;;;2.90;1.70;;;;;;;1.44;96.75;102948.06;1039017;28;20372;-76
2023/04/03 00:34:37;;;;;;;1.58;1.02;;;;;;;1.42;96.32;102946.47;1045491;28;20311;-76
2023/04/03 00:35:09;;;;;;;6.47;1.75;;;;;;;1.43;96.73;102949.00;1048150;28;20389;-76
2023/04/03 00:35:41;;;;;;;5.75;1.70;;;;;;;1.45;96.51;102949.75;1041714;28;20690;-76
2023/04/03 00:36:13;;;;;;;1.98;1.80;;;;;;;1.48;96.41;102949.53;1043790;28;20295;-77
2023/04/03 00:36:45;;;;;;;3.53;1.63;;;;;;;1.50;96.59;102950.25;1042211;28;20640;-76
2023/04/03 00:37:17;;;;;;;3.72;1.50;;;;;;;1.49;96.56;102947.75;1042169;28;20950;-76
2023/04/03 00:37:51;;;;;;;3.20;1.80;;;;;;;1.48;96.47;102953.94;1039826;28;20354;-76
2023/04/03 00:38:22;;;;;;;3.40;1.85;;;;;;;1.48;96.35;102954.78;1040139;28;20371;-76
2023/04/03 00:38:54;;;;;;;4.75;1.40;;;;;;;1.50;96.72;102957.28;1044288;28;20295;-76
2023/04/03 00:39:26;;;;;;;3.38;1.92;;;;;;;1.49;96.88;102956.47;1040643;28;20307;-76
2023/04/03 00:39:57;;;;;;;1.73;1.30;;;;;;;1.45;96.62;102943.66;1039544;28;20382;-76
2023/04/03 00:40:34;;;;;;;3.78;1.73;;;;;;;1.49;96.69;102963.50;1040127;28;20328;-76
2023/04/03 00:41:07;;;;;;;2.65;1.70;;;;;;;1.51;96.94;102948.47;1038043;28;20311;-75
2023/04/03 00:41:38;;;;;;;3.20;2.33;;;;;;;1.48;96.97;102957.41;1036974;28;20288;-77
2023/04/03 00:42:10;;;;;;;2.25;1.30;;;;;;;1.47;97.42;102953.09;1035169;28;20387;-76
2023/04/03 00:42:44;;;;;;;3.40;1.33;;;;;;;1.51;96.93;102954.56;1031837;28;20301;-76
2023/04/03 00:43:21;;;;;;;4.65;1.60;;;;;;;1.51;97.39;102953.72;1031785;28;20301;-76
2023/04/03 00:43:53;;;;;;;3.80;1.70;;;;;;;1.52;97.18;102956.25;1033436;28;20309;-76
2023/04/03 00:44:27;;;;;;;1.38;1.23;;;;;;;1.56;96.99;102954.25;1034134;28;20297;-77
2023/04/03 00:45:00;;;;;;;3.08;1.42;;;;;;;1.54;96.92;102959.59;1042820;28;20296;-76
2023/04/03 00:45:37;;;;;;;5.40;2.10;;;;;;;1.60;97.44;102957.50;1048173;28;20784;-76
2023/04/03 00:46:09;;;;;;;5.63;1.80;;;;;;;1.60;97.11;102958.34;1041819;28;20298;-76
2023/04/03 00:46:41;;;;;;;5.55;2.13;;;;;;;1.59;97.19;102961.06;1041061;28;20296;-76
2023/04/03 00:47:16;;;;;;;5.80;2.72;;;;;;;1.54;97.23;102956.13;1040059;28;20311;-76
2023/04/03 00:47:47;;;;;;;4.70;1.45;;;;;;;1.51;96.89;102953.72;1035249;28;20370;-76
2023/04/03 00:48:22;;;;;;;3.90;1.65;;;;;;;1.53;97.01;102963.19;1037814;28;20281;-76
2023/04/03 00:48:53;;;;;;;3.13;1.73;;;;;;;1.52;96.99;102960.66;1037090;28;20352;-76
2023/04/03 00:49:26;;;;;;;5.32;2.05;;;;;;;1.52;96.97;102961.50;1038834;28;20300;-76
2023/04/03 00:49:58;;;;;;;2.65;2.20;;;;;;;1.50;96.77;102963.38;1038293;28;20695;-76
2023/04/03 00:50:30;;;;;;;6.90;2.60;;;;;;;1.49;97.34;102960.88;1036453;28;20778;-76
2023/04/03 00:51:04;;;;;;;3.00;1.98;;;;;;;1.51;97.34;102958.97;1039588;28;20635;-76
2023/04/03 00:51:36;;;;;;;3.70;1.60;;;;;;;1.50;97.39;102963.38;1039653;28;20329;-76
2023/04/03 00:52:12;;;;;;;5.07;1.95;;;;;;;1.47;97.64;102968.00;1037508;28;20300;-76
2023/04/03 00:52:46;;;;;;;2.22;1.42;;;;;;;1.44;97.23;102958.56;1037235;28;20791;-76
2023/04/03 00:53:23;;;;;;;5.03;2.05;;;;;;;1.44;97.64;102962.97;1036058;28;20508;-76
2023/04/03 00:53:59;;;;;;;2.13;1.55;;;;;;;1.43;98.05;102961.28;1041662;28;20307;-77
2023/04/03 00:54:30;;;;;;;9.35;2.03;;;;;;;1.43;98.06;102956.88;1037085;28;20313;-76
2023/04/03 00:55:06;;;;;;;2.33;1.75;;;;;;;1.47;97.72;102962.75;1039089;28;20825;-76
2023/04/03 00:55:38;;;;;;;6.80;1.95;;;;;;;1.47;98.17;102966.22;1035898;28;20312;-76
2023/04/03 00:56:12;;;;;;;3.30;1.63;;;;;;;1.48;98.02;102970.53;1032891;28;20298;-77
2023/04/03 00:56:45;;;;;;;2.00;1.52;;;;;;;1.46;97.85;102964.53;1036738;28;20304;-76
2023/04/03 00:57:17;;;;;;;5.00;2.00;;;;;;;1.45;97.96;102965.50;1032270;28;20314;-76
2023/04/03 00:57:49;;;;;;;5.53;1.70;;;;;;;1.45;98.47;102962.88;1027023;28;20305;-77
2023/04/03 00:58:26;;;;;;;4.68;2.38;;;;;;;1.49;98.31;102966.97;1027303;28;20352;-76
2023/04/03 00:59:02;;;;;;;6.13;1.90;;;;;;;1.54;98.38;102970.09;1031348;28;20298;-76
2023/04/03 00:59:36;;;;;;;4.55;1.65;;;;;;;1.51;98.09;102970.31;1036258;28;20307;-76
2023/04/03 01:00:11;;;;;;;3.35;1.90;;;;;;;1.50;98.31;102971.25;1037632;28;20343;-76
2023/04/03 01:00:46;;;;;;;3.03;1.65;;;;;;;1.52;98.60;102964.13;1035575;28;20315;-76
2023/04/03 01:01:22;;;;;;;4.72;1.95;;;;;;;1.53;98.22;102963.19;1032253;28;20298;-76
2023/04/03 01:01:56;;;;;;;4.85;2.17;;;;;;;1.55;98.15;102966.53;1037536;28;20372;-76
2023/04/03 01:02:28;;;;;;;3.53;2.03;;;;;;;1.50;98.12;102965.19;1032836;28;20779;-76
2023/04/03 01:03:00;;;;;;;5.32;1.95;;;;;;;1.56;98.69;102964.75;1028909;28;20310;-76
2023/04/03 01:03:32;;;;;;;3.97;1.70;;;;;;;1.53;98.37;102964.97;1034625;28;20300;-76
2023/04/03 01:04:27;;;;;;;3.25;1.60;;;;;;;1.54;98.65;102964.00;1037592;28;20380;-76
2023/04/03 01:04:59;;;;;;;3.15;1.70;;;;;;;1.54;98.32;102970.09;1039114;28;20303;-75
2023/04/03 01:05:31;;;;;;;3.83;1.70;;;;;;;1.54;98.15;102969.28;1043569;28;20303;-76
2023/04/03 01:06:04;;;;;;;3.53;2.40;;;;;;;1.55;98.63;102969.16;1039440;28;20300;-76
2023/04/03 01:06:37;;;;;;;2.85;1.65;;;;;;;1.62;98.23;102969.56;1040138;28;20790;-76
2023/04/03 01:07:17;;;;;;;2.83;1.60;;;;;;;1.61;98.20;102970.53;1041875;28;20295;-76
2023/04/03 01:07:50;;;;;;;5.13;3.33;;;;;;;1.57;98.18;102968.22;1038340;28;20300;-76
2023/04/03 01:08:22;;;;;;;9.35;1.67;;;;;;;1.57;98.23;102969.06;1041862;28;20828;-76
2023/04/03 01:08:55;;;;;;;2.25;1.58;;;;;;;1.58;98.45;102964.63;1048462;28;20291;-77
2023/04/03 01:09:26;;;;;;;3.10;1.83;;;;;;;1.51;99.01;102967.69;1047894;28;20376;-77
2023/04/03 01:10:01;;;;;;;2.17;1.60;;;;;;;1.53;99.07;102967.59;1042844;28;20382;-77
2023/04/03 01:10:33;;;;;;;3.78;1.83;;;;;;;1.50;99.19;102971.25;1035707;28;21676;-77
2023/04/03 01:11:04;;;;;;;7.03;1.90;;;;;;;1.58;98.88;102965.47;1032534;28;20305;-76
2023/04/03 01:11:36;;;;;;;2.92;1.40;;;;;;;1.59;99.14;102968.94;1035886;28;20304;-77
2023/04/03 01:12:18;;;;;;;4.60;1.92;;;;;;;1.64;98.74;102969.47;1035416;28;20300;-76
2023/04/03 01:12:51;;;;;;;4.10;1.90;;;;;;;1.59;98.78;102971.56;1032339;28;20297;-76
2023/04/03 01:13:31;;;;;;;4.65;2.28;;;;;;;1.62;98.95;102969.56;1036246;28;20320;-75
2023/04/03 01:14:02;;;;;;;5.70;2.03;;;;;;;1.63;99.05;102973.03;1035385;28;20810;-75
2023/04/03 01:14:35;;;;;;;7.25;2.90;;;;;;;1.66;98.73;102976.31;1031367;28;20301;-76
2023/04/03 01:15:25;;;;;;;4.68;2.03;;;;;;;1.60;98.68;102973.25;1028909;28;20309;-76
2023/04/03 01:16:00;;;;;;;4.55;1.58;;;;;;;1.64;98.64;102969.47;1037647;28;20346;-75
2023/04/03 01:16:32;;;;;;;1.92;1.58;;;;;;;1.54;98.85;102972.72;1042056;28;20343;-75
2023/04/03 01:17:20;;;;;;;4.68;1.88;;;;;;;1.64;99.21;102977.34;1032850;28;20312;-76
2023/04/03 01:17:56;;;;;;;5.68;1.63;;;;;;;1.57;98.83;102974.31;1035366;28;20307;-75
2023/04/03 01:18:28;;;;;;;4.82;1.95;;;;;;;1.52;98.92;102979.88;1039763;28;20307;-75
2023/04/03 01:19:00;;;;;;;3.97;1.85;;;;;;;1.46;99.20;102976.84;1034571;28;20376;-75
2023/04/03 01:19:34;;;;;;;4.47;1.50;;;;;;;1.57;99.09;102973.47;1031530;28;20305;-74
2023/04/03 01:20:11;;;;;;;2.53;1.48;;;;;;;1.55;99.58;102977.03;1039779;28;20327;-74
2023/04/03 01:21:00;;;;;;;3.28;1.40;;;;;;;1.47;98.96;102974.09;1041014;28;20844;-73
2023/04/03 01:21:50;;;;;;;9.98;2.67;;;;;;;1.54;99.31;102975.34;1041533;28;20657;-74
2023/04/03 01:22:31;;;;;;;2.45;1.60;;;;;;;1.54;99.65;102980.63;1039151;28;20300;-74
2023/04/03 01:23:09;;;;;;;6.35;2.25;;;;;;;1.57;99.55;102978.72;1030919;28;20304;-74
2023/04/03 01:23:54;;;;;;;3.50;1.13;;;;;;;1.53;99.59;102978.94;1035748;28;20323;-74
2023/04/03 01:24:46;;;;;;;4.50;1.50;;;;;;;1.52;99.56;102977.25;1035606;28;20348;-74
2023/04/03 01:25:18;;;;;;;;;;;;;;;1.53;99.56;102978.09;1040273;28;20315;-74
2023/04/03 01:25:52;;;;;;;3.13;1.10;;;;;;;1.50;99.15;102979.16;1043704;28;19943;-74
2023/04/03 01:26:25;;;;;;;6.22;1.33;;;;;;;1.49;99.64;102982.72;1045428;28;20303;-74
2023/04/03 01:26:57;;;;;;;2.50;1.65;;;;;;;1.49;99.28;102977.47;1039368;28;20306;-74
2023/04/03 01:27:29;;;;;;;5.53;1.60;;;;;;;1.46;99.75;102980.31;1037446;28;20308;-76
2023/04/03 01:28:01;;;;;;;2.53;1.33;;;;;;;1.49;99.83;102977.47;1034381;28;20301;-76
2023/04/03 01:28:34;;;;;;;4.55;2.08;;;;;;;1.48;99.62;102985.44;1031444;28;20301;-75
2023/04/03 01:29:06;;;;;;;3.13;1.73;;;;;;;1.43;100.00;102975.25;1031833;28;20791;-76
2023/04/03 01:29:38;;;;;;;5.13;1.55;;;;;;;1.47;100.00;102975.88;1032579;28;20305;-76
2023/04/03 01:30:10;;;;;;;3.10;1.67;;;;;;;1.49;100.00;102980.09;1033942;28;20302;-76
2023/04/03 01:31:03;;;;;;;3.47;1.25;;;;;;;1.45;100.00;102981.25;1033562;28;20834;-75
2023/04/03 01:31:52;;;;;;;5.68;1.60;;;;;;;1.49;100.00;102981.88;1035518;28;20293;-75
2023/04/03 01:32:24;;;;;;;4.70;1.98;;;;;;;1.50;100.00;102980.94;1035020;28;20297;-76
2023/04/03 01:32:56;;;;;;;3.83;0.98;;;;;;;1.52;100.00;102982.50;1034579;28;20905;-75
2023/04/03 01:33:29;;;;;;;3.00;1.35;;;;;;;1.48;100.00;102983.66;1039448;28;20671;-76
2023/04/03 01:34:01;;;;;;;2.80;1.58;;;;;;;1.59;100.00;102987.34;1035187;28;20802;-75
2023/04/03 01:34:35;;;;;;;5.22;1.80;;;;;;;1.57;100.00;102983.97;1032004;28;20316;-76
2023/04/03 01:35:08;;;;;;;4.38;1.40;;;;;;;1.53;100.00;102986.81;1032376;28;20807;-74
2023/04/03 01:35:40;;;;;;;3.50;1.45;;;;;;;1.52;100.00;102990.38;1029202;28;20387;-74
2023/04/03 01:36:16;;;;;;;2.67;1.67;;;;;;;1.51;100.00;102983.44;1035457;28;20296;-74
2023/04/03 01:36:47;;;;;;;3.88;1.92;;;;;;;1.55;100.00;102987.53;1037957;28;20387;-74
2023/04/03 01:37:19;;;;;;;5.72;1.73;;;;;;;1.52;100.00;102987.75;1037546;28;20312;-73
2023/04/03 01:37:51;;;;;;;2.45;1.58;;;;;;;1.49;100.00;102990.59;1041080;28;20361;-74
2023/04/03 01:38:23;;;;;;;6.95;3.35;;;;;;;1.46;100.00;102988.19;1039287;28;20528;-74
2023/04/03 01:38:56;;;;;;;6.88;1.90;;;;;;;1.43;100.00;102991.03;1044419;28;20358;-74
2023/04/03 01:39:28;;;;;;;2.47;1.20;;;;;;;1.50;100.00;102989.66;1047928;28;20347;-73
2023/04/03 01:40:00;;;;;;;7.07;1.60;;;;;;;1.43;100.00;102988.41;1043299;28;20311;-74
2023/04/03 01:40:32;;;;;;;5.65;1.17;;;;;;;1.44;100.00;102987.44;1043510;28;20280;-74
2023/04/03 01:41:04;;;;;;;3.25;1.70;;;;;;;1.39;100.00;102991.34;1032988;28;20297;-73
2023/04/03 01:41:36;;;;;;;6.63;1.52;;;;;;;1.48;100.00;102991.53;1039863;28;20307;-74
2023/04/03 01:42:17;;;;;;;;;;;;;;;1.48;100.00;102990.69;1039537;28;20453;-74
2023/04/03 01:42:48;;;;;;;2.75;1.55;;;;;;;1.54;100.00;102993.75;1037834;28;19920;-74
2023/04/03 01:43:20;;;;;;;3.97;1.30;;;;;;;1.47;100.00;102984.59;1039742;28;20303;-74
2023/04/03 01:43:52;;;;;;;8.75;2.30;;;;;;;1.47;100.00;102989.03;1039372;28;20315;-74
2023/04/03 01:44:23;;;;;;;6.57;1.95;;;;;;;1.50;100.00;102992.28;1035294;28;20674;-74
2023/04/03 01:44:55;;;;;;;2.10;1.65;;;;;;;1.47;100.00;102984.59;1035818;28;20296;-74
2023/04/03 01:45:27;;;;;;;5.35;2.70;;;;;;;1.47;100.00;102995.13;1035522;28;20375;-74
2023/04/03 01:45:58;;;;;;;2.30;1.75;;;;;;;1.50;100.00;102994.91;1040107;28;20377;-75
2023/04/03 01:46:30;;;;;;;3.95;1.85;;;;;;;1.42;100.00;102991.97;1043663;28;20324;-76
2023/04/03 01:47:05;;;;;;;4.35;1.73;;;;;;;1.40;100.00;102993.84;1039477;28;20300;-76
2023/04/03 01:47:37;;;;;;;3.08;1.85;;;;;;;1.48;100.00;102991.53;1034413;28;20300;-76
2023/04/03 01:48:09;;;;;;;3.28;1.58;;;;;;;1.53;100.00;102992.06;1034854;28;20308;-74
2023/04/03 01:48:41;;;;;;;4.70;2.38;;;;;;;1.46;100.00;102992.59;1035799;28;20624;-74
2023/04/03 01:49:13;;;;;;;3.75;1.42;;;;;;;1.48;100.00;102990.69;1040599;28;20335;-73
2023/04/03 01:49:45;;;;;;;7.13;2.00;;;;;;;1.50;100.00;102989.66;1044435;28;20355;-74
2023/04/03 01:50:16;;;;;;;3.22;2.22;;;;;;;1.47;100.00;102989.84;1039725;28;20898;-74
2023/04/03 01:50:49;;;;;;;4.45;1.70;;;;;;;1.51;100.00;102990.50;1039037;28;20510;-74
2023/04/03 01:51:20;;;;;;;3.65;1.73;;;;;;;1.50;100.00;102994.91;1039511;28;20299;-76
2023/04/03 01:51:52;;;;;;;5.00;1.35;;;;;;;1.52;100.00;102987.75;1038343;28;20435;-74
2023/04/03 01:52:24;;;;;;;1.77;1.42;;;;;;;1.52;100.00;102993.00;1043540;28;20792;-75
2023/04/03 01:52:55;;;;;;;5.55;1.30;;;;;;;1.55;100.00;102992.81;1030925;28;21030;-76
2023/04/03 01:53:27;;;;;;;2.50;1.75;;;;;;;1.55;100.00;102997.22;1034649;28;20309;-75
2023/04/03 01:53:59;;;;;;;2.30;1.90;;;;;;;1.53;100.00;102989.44;1043630;28;20302;-76
2023/04/03 01:54:30;;;;;;;4.32;2.25;;;;;;;1.54;100.00;102990.28;1039817;28;20300;-75
2023/04/03 01:55:02;;;;;;;3.42;1.80;;;;;;;1.52;100.00;103000.88;1039170;28;20789;-75
2023/04/03 01:55:34;;;;;;;3.10;1.85;;;;;;;1.51;100.00;102988.69;1035367;28;20327;-75
2023/04/03 01:56:06;;;;;;;2.15;1.45;;;;;;;1.49;100.00;102993.22;1035749;28;20386;-74
2023/04/03 01:56:38;;;;;;;3.50;2.03;;;;;;;1.49;100.00;102990.59;1035878;28;20884;-74
2023/04/03 01:57:10;;;;;;;8.02;1.90;;;;;;;1.54;100.00;102991.13;1032914;28;20294;-74
2023/04/03 01:57:42;;;;;;;7.50;1.50;;;;;;;1.53;100.00;102994.69;1029703;28;20396;-74
2023/04/03 01:58:13;;;;;;;2.67;2.08;;;;;;;1.53;100.00;102997.31;1031522;28;20305;-74
2023/04/03 01:58:45;;;;;;;3.33;1.77;;;;;;;1.52;100.00;102994.78;1036006;28;20284;-73
2023/04/03 01:59:17;;;;;;;2.90;1.33;;;;;;;1.54;100.00;102996.38;1031082;28;20305;-73
2023/04/03 01:59:49;;;;;;;5.38;2.10;;;;;;;1.51;100.00;103001.84;1027800;28;20368;-74
2023/04/03 02:00:21;;;;;;;4.90;1.88;;;;;;;1.51;100.00;102996.59;1034346;28;20890;-73
2023/04/03 02:00:54;;;;;;;5.78;1.52;;;;;;;1.46;100.00;102997.84;1039692;28;20466;-74
2023/04/03 02:01:26;;;;;;;5.65;1.55;;;;;;;1.49;100.00;102998.47;1037545;28;20743;-73
2023/04/03 02:01:58;;;;;;;2.15;1.15;;;;;;;1.41;100.00;103000.78;1040466;28;20299;-73
2023/04/03 02:02:30;;;;;;;3.25;1.58;;;;;;;1.50;100.00;102994.91;1043522;28;20349;-73
2023/04/03 02:03:02;;;;;;;3.28;1.80;;;;;;;1.49;100.00;102997.63;1042267;28;21108;-73
2023/04/03 02:03:34;;;;;;;4.45;1.70;;;;;;;1.50;100.00;102994.06;1035652;28;20307;-73
2023/04/03 02:04:06;;;;;;;2.33;1.88;;;;;;;1.45;100.00;103002.25;1031363;28;20806;-75
2023/04/03 02:04:38;;;;;;;2.83;1.27;;;;;;;1.53;100.00;103004.34;1034463;28;20694;-75
2023/04/03 02:05:09;;;;;;;10.02;1.33;;;;;;;1.51;100.00;103001.84;1038794;28;20335;-75
2023/04/03 02:05:41;;;;;;;4.78;2.08;;;;;;;1.46;100.00;103001.31;1036941;28;20312;-75
2023/04/03 02:06:13;;;;;;;2.42;1.42;;;;;;;1.40;100.00;102995.63;1035801;28;20364;-75
2023/04/03 02:06:45;;;;;;;7.60;1.63;;;;;;;1.48;100.00;103002.03;1037458;28;20889;-75
2023/04/03 02:07:17;;;;;;;4.30;1.67;;;;;;;1.46;100.00;103001.31;1038892;28;20319;-75
2023/04/03 02:07:48;;;;;;;8.63;2.40;;;;;;;1.28;100.00;103001.69;1039226;28;20307;-75
2023/04/03 02:08:20;;;;;;;6.68;2.15;;;;;;;1.34;100.00;103010.00;1039622;28;20304;-76
2023/04/03 02:08:52;;;;;;;2.85;1.45;;;;;;;1.39;100.00;103007.09;1035877;28;20299;-75
2023/04/03 02:09:24;;;;;;;3.00;1.52;;;;;;;1.39;100.00;103007.94;1042411;28;20298;-76
2023/04/03 02:09:56;;;;;;;5.28;2.03;;;;;;;1.39;100.00;103001.84;1035007;28;20332;-75
2023/04/03 02:10:28;;;;;;;7.28;1.83;;;;;;;1.52;100.00;103005.31;1038057;28;20358;-75
2023/04/03 02:11:00;;;;;;;6.25;2.03;;;;;;;1.54;100.00;103006.88;1035731;28;20297;-75
2023/04/03 02:11:32;;;;;;;5.30;1.75;;;;;;;1.54;100.00;103008.66;1038892;28;20801;-76
2023/04/03 02:12:04;;;;;;;5.05;1.65;;;;;;;1.54;100.00;103006.03;1035538;28;20301;-75
2023/04/03 02:12:36;;;;;;;4.45;1.60;;;;;;;1.54;100.00;103006.88;1034046;28;20404;-75
2023/04/03 02:13:08;;;;;;;1.80;1.67;;;;;;;1.57;100.00;103004.97;1026698;28;20424;-76
2023/04/03 02:13:40;;;;;;;3.05;1.58;;;;;;;1.53;100.00;102999.94;1030443;28;20305;-75
2023/04/03 02:14:12;;;;;;;5.10;2.25;;;;;;;1.52;100.00;103003.50;1031830;28;20360;-76
2023/04/03 02:14:43;;;;;;;2.55;1.38;;;;;;;1.56;100.00;103004.16;1032435;28;20857;-73
2023/04/03 02:15:16;;;;;;;7.03;2.10;;;;;;;1.54;100.00;103012.13;1035770;28;20384;-73
2023/04/03 02:15:48;;;;;;;7.07;1.67;;;;;;;1.46;100.00;103003.09;1031405;28;20304;-74
2023/04/03 02:16:21;;;;;;;4.25;1.20;;;;;;;1.18;100.00;103010.19;1036091;28;20331;-73
2023/04/03 02:16:53;;;;;;;3.53;1.70;;;;;;;1.07;100.00;103006.56;1037734;28;20319;-74
2023/04/03 02:17:26;;;;;;;5.90;2.30;;;;;;;1.11;100.00;103002.84;1035400;28;20313;-74
2023/04/03 02:17:59;;;;;;;4.28;1.60;;;;;;;1.29;100.00;103001.59;1039305;28;20787;-74
2023/04/03 02:18:30;;;;;;;4.63;1.80;;;;;;;1.30;100.00;103005.91;1038994;28;20707;-73
2023/04/03 02:19:02;;;;;;;8.32;1.92;;;;;;;1.34;100.00;103011.78;1038002;28;20693;-74
2023/04/03 02:19:35;;;;;;;7.68;1.58;;;;;;;1.45;100.00;103012.75;1035636;28;20304;-73
2023/04/03 02:20:07;;;;;;;5.15;2.03;;;;;;;1.50;100.00;103015.91;1039761;28;20296;-76
2023/04/03 02:20:39;;;;;;;2.92;1.70;;;;;;;1.47;100.00;103017.91;1043747;28;20362;-76
2023/04/03 02:21:11;;;;;;;6.28;1.70;;;;;;;1.45;100.00;103006.66;1041063;28;20304;-75
2023/04/03 02:21:42;;;;;;;2.42;1.77;;;;;;;1.47;100.00;103016.13;1043532;28;20304;-76
2023/04/03 02:22:14;;;;;;;4.72;1.90;;;;;;;1.51;100.00;103012.34;1046305;28;20291;-75
2023/04/03 02:22:46;;;;;;;4.85;2.42;;;;;;;1.47;100.00;103021.38;1039864;28;20344;-75
2023/04/03 02:23:17;;;;;;;3.30;1.80;;;;;;;1.45;100.00;103007.50;1039428;28;20355;-76
2023/04/03 02:23:49;;;;;;;6.15;1.40;;;;;;;1.45;100.00;103007.50;1035428;28;20316;-76
2023/04/03 02:24:22;;;;;;;9.75;2.20;;;;;;;1.45;100.00;103011.91;1033038;28;20308;-75
2023/04/03 02:24:54;;;;;;;3.42;1.20;;;;;;;1.32;100.00;103011.88;1035569;28;20929;-76
2023/04/03 02:25:25;;;;;;;6.45;1.98;;;;;;;1.22;100.00;103014.28;1039989;28;20323;-76
2023/04/03 02:26:10;;;;;;;10.02;2.35;;;;;;;1.28;100.00;103010.41;1045401;28;20290;-76
2023/04/03 02:26:41;;;;;;;4.55;1.75;;;;;;;1.35;100.00;103016.94;1046328;28;21556;-76
2023/04/03 02:27:13;;;;;;;5.13;1.52;;;;;;;1.36;100.00;103013.34;1046299;28;20794;-76
2023/04/03 02:27:45;;;;;;;4.53;1.95;;;;;;;1.28;100.00;103014.81;1040212;28;20313;-75
2023/04/03 02:28:16;;;;;;;5.82;1.80;;;;;;;1.30;100.00;103016.41;1037670;28;20677;-75
2023/04/03 02:28:48;;;;;;;6.45;1.77;;;;;;;1.39;100.00;103018.44;1039541;28;20303;-75
2023/04/03 02:29:20;;;;;;;6.82;2.05;;;;;;;1.42;100.00;103012.13;1036599;28;20815;-75
2023/04/03 02:29:51;;;;;;;4.20;1.83;;;;;;;1.42;100.00;103022.63;1040119;28;20300;-75
2023/04/03 02:30:23;;;;;;;6.97;2.25;;;;;;;1.44;100.00;103015.50;1037400;28;20644;-75
2023/04/03 02:30:55;;;;;;;6.90;1.75;;;;;;;1.45;100.00;103011.91;1039288;28;20307;-74
2023/04/03 02:31:26;;;;;;;7.25;2.38;;;;;;;1.43;100.00;103019.91;1039713;28;20308;-76
2023/04/03 02:31:58;;;;;;;4.72;2.20;;;;;;;1.38;100.00;103011.50;1037568;28;20323;-75
2023/04/03 02:32:30;;;;;;;4.15;1.58;;;;;;;1.25;100.00;103010.63;1042400;28;20705;-75
2023/04/03 02:33:02;;;;;;;6.45;1.55;;;;;;;1.21;100.00;103011.78;1034943;28;20373;-73
2023/04/03 02:33:35;;;;;;;6.57;2.13;;;;;;;1.30;100.00;103016.41;1031926;28;20302;-74
2023/04/03 02:34:08;;;;;;;5.03;2.10;;;;;;;1.34;100.00;103012.63;1031737;28;20320;-74
2023/04/03 02:34:40;;;;;;;10.15;2.70;;;;;;;1.32;100.00;103011.88;1036142;28;20305;-74
2023/04/03 02:35:13;;;;;;;6.07;1.73;;;;;;;1.34;100.00;103015.25;1040523;28;20729;-73